Time;durP1;ratioP1;P1;durP2;ratioP2;P2;SDS_P1;SDS_P2;PMS_P1;PMS_P2;Temp;Humidity;BMP_temperature;BMP_pressure;BME280_temperature;BME280_humidity;BME280_pressure;Samples;Min_cycle;Max_cycle;Signal;HPM_P1;HPM_P2
2021/12/16 00:02:56;;;;;;;28.25;10.38;;;;;;;6.43;100.00;103519.75;5035879;28;20049;-77
2021/12/16 00:05:36;;;;;;;31.88;11.18;;;;;;;6.49;100.00;103516.94;5035276;28;20486;-76
2021/12/16 00:08:06;;;;;;;31.38;10.48;;;;;;;6.56;100.00;103517.59;5035643;28;20041;-76
2021/12/16 00:10:42;;;;;;;36.40;11.00;;;;;;;6.60;100.00;103515.72;5035373;28;20029;-77
2021/12/16 00:34:55;;;;;;;37.05;11.10;;;;;;;6.74;100.00;103515.31;5035325;28;20071;-77
2021/12/16 00:37:20;;;;;;;32.40;10.70;;;;;;;6.70;100.00;103520.69;5034982;28;20030;-77
2021/12/16 00:39:47;;;;;;;36.65;10.50;;;;;;;6.68;100.00;103527.78;5017672;28;20037;-78
2021/12/16 00:42:33;;;;;;;26.27;9.65;;;;;;;6.67;100.00;103525.19;5034645;28;20454;-77
2021/12/16 00:48:08;;;;;;;31.70;10.40;;;;;;;6.63;100.00;103521.78;4935186;29;20130;-77
2021/12/16 00:55:53;;;;;;;28.70;9.40;;;;;;;6.53;100.00;103523.84;5034579;28;20091;-77
2021/12/16 00:58:24;;;;;;;31.05;9.05;;;;;;;6.42;100.00;103528.63;5034770;28;20063;-77
2021/12/16 01:00:59;;;;;;;29.40;9.65;;;;;;;6.30;100.00;103528.94;5034342;28;20084;-77
2021/12/16 01:03:37;;;;;;;30.02;9.43;;;;;;;6.18;100.00;103533.72;5034982;28;20029;-77
2021/12/16 01:55:22;;;;;;;24.35;8.90;;;;;;;4.64;100.00;103569.25;5005289;28;20114;-77
2021/12/16 01:57:58;;;;;;;27.08;11.07;;;;;;;4.60;100.00;103572.88;5033704;28;20418;-77
2021/12/16 02:00:42;;;;;;;26.48;9.32;;;;;;;4.54;100.00;103583.56;5017679;28;20041;-77
2021/12/16 02:03:07;;;;;;;24.83;10.20;;;;;;;4.51;100.00;103583.59;5033679;28;20034;-76
2021/12/16 02:05:54;;;;;;;19.05;8.70;;;;;;;4.48;100.00;103589.81;5033966;28;20114;-77
2021/12/16 02:08:26;;;;;;;30.25;9.95;;;;;;;4.46;100.00;103590.75;5034077;28;20389;-76
2021/12/16 02:11:15;;;;;;;42.30;12.02;;;;;;;4.46;100.00;103578.41;5031915;28;20103;-77
2021/12/16 02:27:19;;;;;;;24.85;10.15;;;;;;;4.42;100.00;103589.94;5016361;28;20423;-77
2021/12/16 02:27:35;;;;;;;25.42;8.90;;;;;;;4.12;100.00;103615.13;5033224;28;20120;-77
2021/12/16 02:33:09;;;;;;;23.67;9.57;;;;;;;4.03;100.00;103613.53;5033047;28;20080;-77
2021/12/16 02:35:42;;;;;;;28.38;10.82;;;;;;;4.00;100.00;103606.56;5032986;28;20057;-77
2021/12/16 02:38:11;;;;;;;24.50;9.57;;;;;;;3.97;100.00;103609.28;5033385;28;20034;-77
2021/12/16 02:40:37;;;;;;;19.38;9.05;;;;;;;3.94;100.00;103605.81;5032863;28;20032;-77
2021/12/16 02:43:52;;;;;;;28.42;10.32;;;;;;;3.94;100.00;103608.44;5032562;28;20041;-77
2021/12/16 02:48:36;;;;;;;25.02;10.30;;;;;;;3.96;100.00;103618.06;5032786;28;20183;-77
2021/12/16 02:51:07;;;;;;;22.42;10.23;;;;;;;3.98;100.00;103620.66;5033231;28;20026;-77
2021/12/16 02:53:34;;;;;;;35.63;13.02;;;;;;;3.98;100.00;103612.75;5032897;28;20044;-77
2021/12/16 02:56:00;;;;;;;30.45;11.63;;;;;;;4.02;100.00;103612.69;5033612;28;20053;-76
2021/12/16 02:58:26;;;;;;;27.20;11.20;;;;;;;4.05;100.00;103609.97;5037026;28;20108;-76
2021/12/16 03:00:57;;;;;;;29.95;12.90;;;;;;;4.06;100.00;103610.84;5036776;28;20029;-77
2021/12/16 03:03:23;;;;;;;37.05;14.02;;;;;;;4.03;100.00;103613.53;5036728;28;20030;-76
2021/12/16 03:05:49;;;;;;;37.80;13.13;;;;;;;4.03;100.00;103603.00;5037350;28;20039;-85
2021/12/16 03:08:15;;;;;;;33.05;11.57;;;;;;;4.03;100.00;103603.88;5036699;28;20032;-77
2021/12/16 03:13:27;;;;;;;34.17;13.85;;;;;;;4.12;100.00;103599.31;5037314;28;20477;-76
2021/12/16 03:16:13;;;;;;;41.53;14.52;;;;;;;4.14;100.00;103602.81;5036418;28;20507;-79
2021/12/16 03:21:17;;;;;;;25.95;12.23;;;;;;;4.14;100.00;103597.53;5036759;28;20053;-76
2021/12/16 03:24:03;;;;;;;31.00;12.63;;;;;;;4.16;100.00;103607.13;5036781;28;20178;-76
2021/12/16 03:34:28;;;;;;;41.60;14.45;;;;;;;4.24;100.00;103615.78;5036020;28;20103;-77
2021/12/16 03:37:22;;;;;;;45.30;15.63;;;;;;;4.28;100.00;103616.56;5036422;28;20339;-77
2021/12/16 03:39:56;;;;;;;38.55;15.75;;;;;;;4.32;100.00;103610.34;5018186;28;20025;-77
2021/12/16 03:42:35;;;;;;;57.47;18.10;;;;;;;4.37;100.00;103610.25;5036132;28;20513;-76
2021/12/16 03:46:25;;;;;;;38.28;16.00;;;;;;;4.41;100.00;103617.22;5035900;28;20049;-77
2021/12/16 03:48:01;;;;;;;46.05;17.42;;;;;;;4.46;100.00;103610.06;5035313;28;20095;-77
2021/12/16 03:50:27;;;;;;;40.92;17.52;;;;;;;4.53;100.00;103611.69;5035789;28;20059;-77
2021/12/16 03:52:52;;;;;;;40.67;16.83;;;;;;;4.58;100.00;103604.56;5035772;28;20025;-77
2021/12/16 03:55:19;;;;;;;44.90;16.45;;;;;;;4.68;100.00;103599.94;5018150;28;20033;-77
2021/12/16 03:57:45;;;;;;;43.42;18.65;;;;;;;4.77;100.00;103594.44;5035556;28;20048;-77
2021/12/16 04:00:17;;;;;;;66.63;23.20;;;;;;;4.88;100.00;103599.50;5035526;28;20128;-77
2021/12/16 04:02:42;;;;;;;;;;;;;;;5.01;100.00;103608.00;5036073;28;20025;-76
2021/12/16 04:05:10;;;;;;;62.95;20.10;;;;;;;5.05;100.00;103603.53;5036131;28;19962;-77
2021/12/16 04:07:37;;;;;;;50.80;19.08;;;;;;;5.09;100.00;103611.34;5035304;28;20030;-76
2021/12/16 04:10:07;;;;;;;59.60;21.90;;;;;;;5.30;100.00;103612.59;5035105;28;20045;-77
2021/12/16 04:12:33;;;;;;;68.95;23.13;;;;;;;5.50;100.00;103620.97;5034086;28;20069;-77
2021/12/16 04:15:01;;;;;;;85.00;26.35;;;;;;;5.66;100.00;103622.31;5035385;28;20087;-85
2021/12/16 04:17:28;;;;;;;58.08;21.08;;;;;;;5.88;100.00;103622.63;5035622;28;20489;-77
2021/12/16 04:19:56;;;;;;;56.90;22.48;;;;;;;6.05;100.00;103616.06;5035236;28;20030;-76
2021/12/16 04:22:29;;;;;;;48.22;20.92;;;;;;;6.14;100.00;103615.81;5035395;28;20067;-76
2021/12/16 04:24:57;;;;;;;61.38;21.98;;;;;;;6.33;100.00;103621.44;5002715;28;20075;-77
2021/12/16 04:27:23;;;;;;;43.45;18.75;;;;;;;6.43;100.00;103627.31;5035173;28;20116;-77
2021/12/16 04:29:49;;;;;;;51.28;21.02;;;;;;;6.51;100.00;103622.69;5035229;28;20135;-77
2021/12/16 04:32:16;;;;;;;44.42;17.20;;;;;;;6.53;100.00;103631.44;5035663;28;20442;-77
2021/12/16 04:34:42;;;;;;;35.55;16.35;;;;;;;6.58;100.00;103620.72;5035305;28;20041;-77
2021/12/16 04:37:08;;;;;;;41.60;16.35;;;;;;;6.62;100.00;103620.59;5035030;28;20041;-77
2021/12/16 04:39:37;;;;;;;38.05;15.30;;;;;;;6.62;100.00;103620.59;5034912;28;20088;-77
2021/12/16 04:42:04;;;;;;;34.70;15.10;;;;;;;6.58;100.00;103618.09;5017323;28;20112;-85
2021/12/16 04:44:29;;;;;;;31.42;14.40;;;;;;;6.52;100.00;103627.94;5034874;28;20057;-77
2021/12/16 04:46:56;;;;;;;35.75;14.75;;;;;;;6.58;100.00;103616.28;5034589;28;20052;-77
2021/12/16 04:49:22;;;;;;;36.60;14.35;;;;;;;6.67;100.00;103618.69;5016993;28;20109;-77
2021/12/16 04:51:51;;;;;;;27.85;13.27;;;;;;;6.73;100.00;103617.63;5034917;28;20036;-77
2021/12/16 04:54:18;;;;;;;33.85;13.90;;;;;;;6.74;100.00;103626.44;5034545;28;20470;-77
2021/12/16 04:56:44;;;;;;;33.17;13.82;;;;;;;6.76;100.00;103628.09;5035337;28;20041;-77
2021/12/16 04:59:12;;;;;;;28.42;12.98;;;;;;;6.72;100.00;103634.44;5034803;28;20059;-77
2021/12/16 05:01:41;;;;;;;38.17;14.38;;;;;;;6.73;100.00;103630.00;5034354;28;20033;-77
2021/12/16 05:04:06;;;;;;;25.35;12.55;;;;;;;6.70;100.00;103629.19;5034920;28;20108;-79
2021/12/16 05:06:32;;;;;;;28.25;11.73;;;;;;;6.67;100.00;103628.38;5034451;28;20061;-77
2021/12/16 05:08:58;;;;;;;31.90;12.38;;;;;;;6.60;100.00;103630.34;5034040;28;20057;-77
2021/12/16 05:11:25;;;;;;;27.00;12.15;;;;;;;6.54;100.00;103638.47;5034202;28;20038;-77
2021/12/16 05:13:50;;;;;;;26.65;11.77;;;;;;;6.42;100.00;103645.00;5034562;28;20025;-77
2021/12/16 05:16:16;;;;;;;29.45;11.70;;;;;;;6.29;100.00;103641.81;5034049;28;20057;-77
2021/12/16 05:18:42;;;;;;;24.05;11.65;;;;;;;6.23;100.00;103641.97;5015943;28;20033;-77
2021/12/16 05:21:39;;;;;;;21.13;12.40;;;;;;;6.18;100.00;103644.75;5016500;28;20084;-86
2021/12/16 05:24:16;;;;;;;24.80;11.23;;;;;;;6.10;100.00;103648.50;5034523;28;20433;-77
2021/12/16 05:26:42;;;;;;;30.35;10.45;;;;;;;6.01;100.00;103654.91;5034174;28;20034;-77
2021/12/16 05:29:09;;;;;;;31.90;12.27;;;;;;;5.93;100.00;103660.34;5034079;28;20066;-85
2021/12/16 05:31:34;;;;;;;23.15;12.10;;;;;;;5.85;100.00;103659.66;5034118;28;20495;-77
2021/12/16 05:34:02;;;;;;;26.02;11.25;;;;;;;5.78;100.00;103661.63;5034228;28;20068;-77
2021/12/16 05:36:27;;;;;;;20.08;12.05;;;;;;;5.75;100.00;103660.84;5016128;28;20408;-75
2021/12/16 05:38:52;;;;;;;25.55;12.32;;;;;;;5.65;100.00;103666.31;5034011;28;20037;-76
2021/12/16 05:41:20;;;;;;;23.50;11.23;;;;;;;5.58;100.00;103667.41;5033871;28;20041;-76
2021/12/16 05:43:46;;;;;;;22.65;10.90;;;;;;;5.54;100.00;103660.47;5033901;28;20482;-76
2021/12/16 05:46:14;;;;;;;31.08;12.70;;;;;;;5.47;100.00;103665.00;5033343;28;20035;-77
2021/12/16 05:48:41;;;;;;;23.25;11.60;;;;;;;5.47;100.00;103670.28;5033832;28;20029;-76
2021/12/16 05:51:15;;;;;;;27.45;12.93;;;;;;;5.51;100.00;103672.84;5033682;28;20036;-78
2021/12/16 05:53:42;;;;;;;31.20;12.35;;;;;;;5.44;100.00;103673.00;5017225;28;20029;-76
2021/12/16 05:56:08;;;;;;;28.88;10.90;;;;;;;5.40;100.00;103679.25;5033611;28;20057;-77
2021/12/16 05:58:36;;;;;;;28.33;12.25;;;;;;;5.28;100.00;103672.50;5033979;28;20477;-76
2021/12/16 06:01:07;;;;;;;17.55;9.52;;;;;;;5.17;100.00;103676.28;5033516;28;20125;-76
2021/12/16 06:03:33;;;;;;;18.67;10.35;;;;;;;5.09;100.00;103676.44;5033979;28;20106;-77
2021/12/16 06:05:59;;;;;;;23.92;10.48;;;;;;;5.02;100.00;103669.59;5033842;28;20068;-78
2021/12/16 06:08:25;;;;;;;27.02;11.88;;;;;;;5.00;100.00;103674.00;5033243;28;20030;-76
2021/12/16 06:13:28;;;;;;;25.08;11.27;;;;;;;4.96;100.00;103678.50;5033520;28;20042;-75
2021/12/16 06:26:40;;;;;;;36.88;14.60;;;;;;;5.02;100.00;103698.63;5033107;28;20048;-73
2021/12/16 06:29:06;;;;;;;25.80;11.80;;;;;;;4.91;100.00;103697.06;5032941;28;20029;-74
2021/12/16 06:31:32;;;;;;;24.50;11.63;;;;;;;4.84;100.00;103700.72;5032705;28;20036;-74
2021/12/16 06:33:57;;;;;;;24.33;12.75;;;;;;;4.86;100.00;103693.63;5033075;28;20033;-74
2021/12/16 06:36:23;;;;;;;31.95;12.77;;;;;;;4.89;100.00;103708.53;5033040;28;20397;-75
2021/12/16 06:38:48;;;;;;;23.98;10.70;;;;;;;4.84;100.00;103708.66;5032958;28;20475;-75
2021/12/16 06:41:15;;;;;;;22.95;11.70;;;;;;;4.80;100.00;103708.75;5032386;28;20037;-75
2021/12/16 06:43:42;;;;;;;25.85;12.38;;;;;;;4.76;100.00;103700.00;5032533;28;20033;-76
2021/12/16 06:46:12;;;;;;;18.10;10.20;;;;;;;4.73;100.00;103706.22;5032773;28;20036;-76
2021/12/16 06:48:40;;;;;;;32.83;12.18;;;;;;;4.80;100.00;103714.88;5032865;28;20025;-77
2021/12/16 06:51:14;;;;;;;26.48;11.00;;;;;;;4.89;100.00;103721.75;5032645;28;20117;-75
2021/12/16 06:53:51;;;;;;;24.42;11.05;;;;;;;4.86;100.00;103727.09;5000543;28;20399;-74
2021/12/16 06:56:24;;;;;;;33.40;14.45;;;;;;;4.81;100.00;103719.25;5032989;28;20042;-75
2021/12/16 06:59:03;;;;;;;27.95;14.32;;;;;;;4.79;100.00;103717.53;5032606;28;20068;-75
2021/12/16 07:01:39;;;;;;;24.50;13.25;;;;;;;4.73;100.00;103732.63;5032702;28;20057;-75
2021/12/16 07:04:07;;;;;;;28.15;13.57;;;;;;;4.69;100.00;103738.84;5000048;28;20030;-76
2021/12/16 07:06:34;;;;;;;37.33;15.15;;;;;;;4.70;100.00;103737.94;5032245;28;20033;-75
2021/12/16 07:09:09;;;;;;;31.45;14.73;;;;;;;4.74;100.00;103739.59;5032432;28;20091;-73
2021/12/16 07:11:41;;;;;;;28.77;13.85;;;;;;;4.80;100.00;103737.75;5032771;28;20116;-73
2021/12/16 07:14:12;;;;;;;40.17;16.45;;;;;;;4.84;100.00;103744.72;5032104;28;20038;-73
2021/12/16 07:16:37;;;;;;;32.03;15.00;;;;;;;4.86;100.00;103751.69;5032485;28;20029;-74
2021/12/16 07:19:03;;;;;;;31.10;13.77;;;;;;;4.90;100.00;103755.16;5032823;28;20059;-74
2021/12/16 07:21:28;;;;;;;38.65;15.70;;;;;;;4.92;100.00;103753.34;5031877;28;20110;-75
2021/12/16 07:23:54;;;;;;;35.45;15.35;;;;;;;4.93;100.00;103763.88;5032526;28;20150;-74
2021/12/16 07:26:19;;;;;;;29.63;14.57;;;;;;;4.94;100.00;103760.34;5032389;28;20539;-78
2021/12/16 07:28:45;;;;;;;35.03;14.95;;;;;;;4.94;100.00;103762.97;5032612;28;20033;-74
2021/12/16 07:31:10;;;;;;;32.22;14.27;;;;;;;4.95;100.00;103763.81;5032166;28;20025;-75
2021/12/16 07:33:36;;;;;;;33.00;15.88;;;;;;;5.00;100.00;103763.72;5032032;28;20112;-75
2021/12/16 07:36:02;;;;;;;44.78;17.23;;;;;;;5.02;100.00;103781.28;5032281;28;20119;-74
2021/12/16 07:38:29;;;;;;;56.42;20.85;;;;;;;5.06;100.00;103782.97;5032100;28;20492;-74
2021/12/16 07:40:56;;;;;;;45.33;17.83;;;;;;;5.09;100.00;103776.72;5031828;28;20048;-74
2021/12/16 07:43:40;;;;;;;44.42;16.35;;;;;;;5.10;100.00;103789.91;5034556;28;20029;-74
2021/12/16 07:46:06;;;;;;;34.80;14.40;;;;;;;5.09;100.00;103797.84;5020065;28;20492;-75
2021/12/16 07:48:31;;;;;;;30.95;14.07;;;;;;;5.02;100.00;103809.47;5035236;28;20053;-74
2021/12/16 07:51:00;;;;;;;38.50;16.08;;;;;;;4.92;100.00;103809.59;5035508;28;20086;-74
2021/12/16 07:53:26;;;;;;;33.05;14.82;;;;;;;4.88;100.00;103807.94;5035536;28;20031;-77
2021/12/16 07:55:51;;;;;;;42.38;18.02;;;;;;;4.84;100.00;103816.81;5035303;28;20099;-74
2021/12/16 07:58:19;;;;;;;41.05;15.48;;;;;;;4.76;100.00;103829.25;5035357;28;20033;-73
2021/12/16 08:00:46;;;;;;;37.67;15.82;;;;;;;4.69;100.00;103819.75;5035642;28;20523;-73
2021/12/16 08:03:14;;;;;;;35.15;15.23;;;;;;;4.65;100.00;103820.69;5035885;28;20084;-73
2021/12/16 08:05:46;;;;;;;35.47;15.55;;;;;;;4.62;100.00;103826.03;5035234;28;20034;-73
2021/12/16 08:08:11;;;;;;;35.10;15.98;;;;;;;4.58;100.00;103820.81;5036071;28;20029;-73
2021/12/16 08:10:37;;;;;;;41.67;15.73;;;;;;;4.55;100.00;103818.22;5035630;28;20359;-74
2021/12/16 08:13:03;;;;;;;41.55;16.25;;;;;;;4.57;100.00;103820.84;5035427;28;20061;-74
2021/12/16 08:15:29;;;;;;;48.15;19.30;;;;;;;4.57;100.00;103820.84;5035085;28;20075;-74
2021/12/16 08:17:55;;;;;;;41.15;17.60;;;;;;;4.59;100.00;103822.53;5035011;28;20034;-74
2021/12/16 08:20:21;;;;;;;35.58;15.60;;;;;;;4.59;100.00;103822.53;5035059;28;20521;-73
2021/12/16 08:22:50;;;;;;;36.80;16.73;;;;;;;4.63;100.00;103815.44;5034684;28;20025;-74
2021/12/16 08:25:17;;;;;;;44.45;18.50;;;;;;;4.70;100.00;103829.38;5035458;28;20056;-73
2021/12/16 08:27:44;;;;;;;37.45;16.55;;;;;;;4.72;100.00;103844.28;5034545;28;20533;-73
2021/12/16 08:30:12;;;;;;;43.70;18.60;;;;;;;4.69;100.00;103838.22;5035200;28;20029;-73
2021/12/16 08:32:39;;;;;;;45.35;19.27;;;;;;;4.66;100.00;103838.25;5035078;28;20026;-73
2021/12/16 08:35:06;;;;;;;35.75;17.60;;;;;;;4.66;100.00;103849.69;5034411;28;20091;-73
2021/12/16 08:37:32;;;;;;;41.85;19.02;;;;;;;4.68;100.00;103847.00;5034428;28;20041;-73
2021/12/16 08:39:58;;;;;;;54.72;20.98;;;;;;;4.71;100.00;103841.69;5034497;28;20033;-73
2021/12/16 08:42:23;;;;;;;57.10;20.73;;;;;;;4.75;100.00;103844.22;5034496;28;20086;-72
2021/12/16 08:44:48;;;;;;;59.92;22.50;;;;;;;4.79;100.00;103849.44;5034140;28;20107;-73
2021/12/16 08:47:19;;;;;;;66.90;22.15;;;;;;;4.81;100.00;103853.81;5034105;28;20026;-73
2021/12/16 08:49:44;;;;;;;58.30;22.60;;;;;;;4.82;100.00;103866.13;5034502;28;20034;-73
2021/12/16 08:52:16;;;;;;;47.58;21.45;;;;;;;4.85;100.00;103866.06;5034411;28;20124;-73
2021/12/16 08:54:41;;;;;;;56.45;23.25;;;;;;;4.90;100.00;103874.75;5033713;28;20037;-72
2021/12/16 08:57:07;;;;;;;53.75;22.60;;;;;;;4.95;100.00;103872.03;5034375;28;20029;-73
2021/12/16 08:59:34;;;;;;;53.83;23.65;;;;;;;4.97;100.00;103875.53;5034004;28;20072;-73
2021/12/16 09:02:01;;;;;;;45.67;21.55;;;;;;;4.98;100.00;103877.25;5034145;28;20038;-73
2021/12/16 09:04:27;;;;;;;61.10;24.77;;;;;;;5.02;100.00;103880.72;5034233;28;20117;-73
2021/12/16 09:06:56;;;;;;;71.55;27.38;;;;;;;5.07;100.00;103870.94;5033926;28;20065;-73
2021/12/16 09:09:22;;;;;;;67.40;24.17;;;;;;;5.14;100.00;103882.25;5034069;28;20056;-74
2021/12/16 09:12:10;;;;;;;63.05;25.45;;;;;;;5.18;100.00;103882.16;5034013;28;20042;-73
2021/12/16 09:14:36;;;;;;;67.50;26.65;;;;;;;5.26;100.00;103874.09;5033932;28;20034;-73
2021/12/16 09:17:09;;;;;;;64.45;25.25;;;;;;;5.38;100.00;103878.25;5033660;28;20036;-73
2021/12/16 09:19:40;;;;;;;65.25;27.05;;;;;;;5.50;100.00;103879.78;5033774;28;20535;-77
2021/12/16 09:22:06;;;;;;;70.93;27.08;;;;;;;5.62;100.00;103879.53;5034490;28;20144;-72
2021/12/16 09:24:32;;;;;;;73.03;27.77;;;;;;;5.77;100.00;103889.75;5034291;28;20054;-72
2021/12/16 09:26:58;;;;;;;73.63;27.67;;;;;;;5.88;100.00;103899.22;5033732;28;20030;-74
2021/12/16 09:29:23;;;;;;;83.82;30.30;;;;;;;5.95;100.00;103887.63;5033862;28;20033;-72
2021/12/16 09:31:48;;;;;;;75.88;29.45;;;;;;;6.04;100.00;103882.16;5033968;28;20072;-73
2021/12/16 09:34:14;;;;;;;67.65;28.48;;;;;;;6.18;100.00;103884.50;5033426;28;20040;-73
2021/12/16 09:36:42;;;;;;;63.08;27.13;;;;;;;6.32;100.00;103892.94;5033514;28;20041;-72
2021/12/16 09:39:13;;;;;;;59.10;25.17;;;;;;;6.49;100.00;103883.75;5034312;28;20033;-73
2021/12/16 09:41:42;;;;;;;59.60;26.10;;;;;;;6.63;100.00;103881.63;5033550;28;20121;-73
2021/12/16 09:44:08;;;;;;;79.22;31.10;;;;;;;6.77;100.00;103891.00;5015951;28;20068;-72
2021/12/16 09:46:35;;;;;;;73.75;29.83;;;;;;;6.88;100.00;103894.22;5033383;28;20034;-73
2021/12/16 09:49:00;;;;;;;72.38;28.50;;;;;;;6.97;100.00;103890.47;5016035;28;20116;-73
2021/12/16 09:51:29;;;;;;;69.28;27.02;;;;;;;7.07;100.00;103892.81;5033433;28;20064;-72
2021/12/16 09:53:59;;;;;;;79.13;30.23;;;;;;;7.18;100.00;103897.84;5033010;28;20033;-72
2021/12/16 09:56:26;;;;;;;65.97;26.85;;;;;;;7.30;100.00;103903.69;5033026;28;20106;-72
2021/12/16 09:58:53;;;;;;;76.07;29.58;;;;;;;7.41;100.00;103909.56;5033694;28;20030;-72
2021/12/16 10:01:20;;;;;;;56.85;25.23;;;;;;;7.53;100.00;103905.69;5033254;28;20128;-73
2021/12/16 10:03:48;;;;;;;53.00;25.42;;;;;;;7.65;100.00;103913.28;5033154;28;20029;-73
2021/12/16 10:06:15;;;;;;;68.82;28.05;;;;;;;7.77;100.00;103912.91;5032834;28;20022;-73
2021/12/16 10:08:42;;;;;;;66.57;25.63;;;;;;;7.89;100.00;103908.19;5033077;28;20064;-72
2021/12/16 10:11:08;;;;;;;53.95;22.55;;;;;;;7.98;100.00;103915.84;5033418;28;20492;-72
2021/12/16 10:13:47;;;;;;;39.00;19.58;;;;;;;8.07;100.00;103926.16;5033486;28;20101;-71
2021/12/16 10:18:56;;;;;;;34.58;16.15;;;;;;;8.17;100.00;103928.56;5033304;28;20052;-72
2021/12/16 10:21:23;;;;;;;30.65;15.43;;;;;;;8.25;100.00;103937.13;5032959;28;20361;-73
2021/12/16 10:23:48;;;;;;;32.08;15.57;;;;;;;8.28;100.00;103937.91;5032733;28;20525;-72
2021/12/16 10:26:24;;;;;;;28.75;14.38;;;;;;;8.38;100.00;103938.47;5032713;28;20156;-74
2021/12/16 10:28:54;;;;;;;28.25;13.70;;;;;;;8.44;100.00;103933.00;5033553;28;20037;-72
2021/12/16 10:31:24;;;;;;;29.33;12.35;;;;;;;8.46;100.00;103930.28;5032623;28;20417;-74
2021/12/16 10:33:59;;;;;;;23.15;11.20;;;;;;;8.54;100.00;103930.94;5033270;28;20117;-73
2021/12/16 10:36:39;;;;;;;22.52;10.65;;;;;;;8.62;100.00;103931.53;5032479;28;20057;-73
2021/12/16 10:39:09;;;;;;;26.20;10.90;;;;;;;8.71;100.00;103937.47;5032899;28;20136;-73
2021/12/16 10:41:39;;;;;;;22.60;10.05;;;;;;;8.76;100.00;103941.72;5033401;28;20030;-72
2021/12/16 10:44:29;;;;;;;32.03;9.93;;;;;;;8.80;100.00;103945.13;5033086;28;20034;-73
2021/12/16 10:47:02;;;;;;;24.42;9.75;;;;;;;8.98;100.00;103944.47;5022422;28;20041;-73
2021/12/16 10:49:37;;;;;;;30.73;10.05;;;;;;;9.17;100.00;103946.50;5032218;28;20045;-74
2021/12/16 10:52:26;;;;;;;21.30;11.20;;;;;;;9.29;100.00;103947.88;5032278;28;20029;-73
2021/12/16 10:54:54;;;;;;;19.45;10.50;;;;;;;9.35;100.00;103945.84;5032821;28;20040;-74
2021/12/16 10:57:25;;;;;;;21.05;9.15;;;;;;;9.51;100.00;103947.97;5032420;28;20042;-74
2021/12/16 10:59:54;;;;;;;19.38;8.10;;;;;;;9.60;99.16;103949.41;5032629;28;20350;-73
2021/12/16 11:02:22;;;;;;;18.42;8.50;;;;;;;9.65;98.33;103937.66;5032803;28;20040;-73
2021/12/16 11:04:55;;;;;;;21.98;8.27;;;;;;;9.64;96.91;103941.28;5032379;28;20030;-78
2021/12/16 11:07:31;;;;;;;21.67;8.68;;;;;;;9.69;97.30;103947.28;5032921;28;20041;-73
2021/12/16 11:10:13;;;;;;;20.40;9.27;;;;;;;9.75;96.86;103950.63;5032976;28;20029;-73
2021/12/16 11:12:50;;;;;;;18.58;8.60;;;;;;;9.84;96.93;103951.16;5032986;28;20102;-74
2021/12/16 11:15:36;;;;;;;24.25;9.40;;;;;;;9.80;95.82;103949.53;5032593;28;20040;-74
2021/12/16 11:18:20;;;;;;;17.17;7.88;;;;;;;9.76;96.42;103939.91;5034973;28;20164;-73
2021/12/16 11:20:52;;;;;;;18.58;8.52;;;;;;;9.73;95.63;103941.84;5035946;28;20037;-72
2021/12/16 11:23:27;;;;;;;20.60;9.60;;;;;;;9.66;96.03;103935.91;5036033;28;20061;-72
2021/12/16 11:25:58;;;;;;;20.88;8.63;;;;;;;9.66;96.45;103941.22;5036096;28;20044;-75
2021/12/16 11:28:31;;;;;;;26.20;8.90;;;;;;;9.65;95.48;103940.31;5036175;28;20484;-73
2021/12/16 11:31:09;;;;;;;18.40;8.73;;;;;;;9.66;95.53;103935.91;5036161;28;20034;-73
2021/12/16 11:33:48;;;;;;;17.13;8.43;;;;;;;9.67;95.98;103929.63;5035946;28;20477;-73
2021/12/16 11:36:33;;;;;;;23.65;8.30;;;;;;;9.68;96.41;103934.91;5036048;28;20107;-74
2021/12/16 11:39:01;;;;;;;15.40;8.00;;;;;;;9.72;96.31;103933.00;5035933;28;20025;-73
2021/12/16 11:41:29;;;;;;;19.17;8.43;;;;;;;9.73;94.77;103929.41;5035500;28;20021;-74
2021/12/16 11:44:03;;;;;;;21.35;8.30;;;;;;;9.74;93.88;103924.97;5035976;28;20025;-74
2021/12/16 11:46:55;;;;;;;21.73;7.35;;;;;;;9.79;94.05;103926.53;5036000;28;20032;-73
2021/12/16 11:49:23;;;;;;;;;;;;;;;9.87;94.26;103923.56;5036292;28;20492;-72
2021/12/16 11:52:00;;;;;;;22.17;8.18;;;;;;;9.92;93.42;103926.06;5035560;28;19909;-73
2021/12/16 11:54:31;;;;;;;19.63;8.32;;;;;;;9.92;92.61;103924.25;5035594;28;20065;-73
2021/12/16 11:56:57;;;;;;;21.17;8.93;;;;;;;9.96;93.49;103917.03;5035191;28;20435;-74
2021/12/16 11:59:42;;;;;;;16.63;7.60;;;;;;;9.99;92.93;103925.75;5035401;28;20116;-71
2021/12/16 12:02:31;;;;;;;16.45;7.57;;;;;;;10.09;93.63;103926.28;5035375;28;20029;-72
2021/12/16 12:05:21;;;;;;;17.55;7.72;;;;;;;10.28;92.19;103920.19;5035511;28;20029;-73
2021/12/16 12:07:56;;;;;;;20.45;7.95;;;;;;;10.40;89.23;103922.41;5034961;28;20029;-72
2021/12/16 12:10:47;;;;;;;17.98;8.00;;;;;;;10.63;89.10;103924.13;5035172;28;20033;-72
2021/12/16 12:13:16;;;;;;;15.15;6.80;;;;;;;10.89;89.80;103917.66;5030639;28;20045;-73
2021/12/16 12:15:55;;;;;;;20.00;7.18;;;;;;;11.03;86.08;103919.75;5035017;28;20025;-73
2021/12/16 12:18:42;;;;;;;18.13;7.30;;;;;;;11.27;83.75;103920.47;5035591;28;20116;-72
2021/12/16 12:21:22;;;;;;;11.05;6.13;;;;;;;11.55;84.11;103913.88;5035498;28;20041;-73
2021/12/16 12:23:51;;;;;;;16.50;6.45;;;;;;;11.79;83.20;103917.22;5035053;28;20478;-73
2021/12/16 12:26:18;;;;;;;16.40;7.15;;;;;;;11.96;80.33;103907.59;5034911;28;20083;-74
2021/12/16 12:28:50;;;;;;;16.02;7.00;;;;;;;12.04;81.49;103908.06;5034767;28;20116;-73
2021/12/16 12:31:18;;;;;;;21.17;6.20;;;;;;;12.11;81.25;103905.97;5035500;28;20034;-73
2021/12/16 12:33:44;;;;;;;14.95;6.35;;;;;;;12.20;78.87;103894.00;5035034;28;20055;-74
2021/12/16 12:36:12;;;;;;;16.55;6.88;;;;;;;12.26;79.27;103899.88;5034839;28;20025;-72
2021/12/16 12:38:38;;;;;;;10.43;6.05;;;;;;;12.37;77.98;103895.81;5034548;28;20033;-73
2021/12/16 12:41:05;;;;;;;19.25;6.18;;;;;;;12.72;76.46;103909.19;5034725;28;20033;-73
2021/12/16 12:43:35;;;;;;;14.95;6.28;;;;;;;13.07;74.25;103910.03;5034973;28;20061;-73
2021/12/16 12:46:05;;;;;;;13.23;5.88;;;;;;;13.32;72.74;103906.09;5035225;28;20029;-86
2021/12/16 12:48:34;;;;;;;15.18;6.20;;;;;;;13.70;72.95;103911.16;5034776;28;20068;-73
2021/12/16 12:51:00;;;;;;;15.77;6.55;;;;;;;14.23;69.93;103911.78;5034649;28;20041;-74
2021/12/16 12:53:46;;;;;;;17.10;7.03;;;;;;;14.59;68.80;103910.59;5034723;28;20037;-73
2021/12/16 12:56:19;;;;;;;13.90;5.30;;;;;;;14.77;64.60;103922.06;5034475;28;20029;-74
2021/12/16 12:58:51;;;;;;;10.70;4.82;;;;;;;14.62;67.30;103910.44;5034475;28;20117;-73
2021/12/16 13:01:17;;;;;;;14.70;5.00;;;;;;;14.65;64.48;103915.59;5034159;28;20064;-74
2021/12/16 13:03:42;;;;;;;10.23;4.95;;;;;;;14.55;65.35;103906.34;5034063;28;20061;-73
2021/12/16 13:06:10;;;;;;;16.50;5.70;;;;;;;14.76;66.22;103907.81;5034541;28;20029;-72
2021/12/16 13:08:38;;;;;;;17.15;5.78;;;;;;;14.99;66.05;103909.06;5034522;28;20064;-73
2021/12/16 13:11:12;;;;;;;12.45;5.78;;;;;;;15.20;64.33;103903.34;5033911;28;20415;-78
2021/12/16 13:13:56;;;;;;;13.32;5.80;;;;;;;15.80;61.41;103904.97;5034421;28;20056;-73
2021/12/16 13:16:57;;;;;;;11.18;5.68;;;;;;;16.20;61.35;103906.88;5033958;28;20068;-73
2021/12/16 13:28:35;;;;;;;14.57;6.38;;;;;;;14.11;65.81;103910.66;5010439;28;20433;-74
2021/12/16 13:31:06;;;;;;;11.43;6.22;;;;;;;13.62;67.60;103924.97;5034262;28;20037;-73
2021/12/16 13:33:43;;;;;;;15.27;5.95;;;;;;;13.39;68.65;103919.06;5034983;28;20033;-74
2021/12/16 13:36:26;;;;;;;11.98;5.60;;;;;;;12.95;70.07;103914.22;5034007;28;20529;-73
2021/12/16 13:38:53;;;;;;;15.10;6.03;;;;;;;12.45;72.27;103913.19;5033985;28;20033;-73
2021/12/16 13:41:22;;;;;;;11.82;6.40;;;;;;;12.05;74.22;103906.28;5033157;28;20037;-73
2021/12/16 13:44:12;;;;;;;17.38;6.85;;;;;;;11.64;75.67;103909.91;5033956;28;20102;-74